Aeroporto :
LOGIN :

Iscrizione | Disclaimer

   EN    FR    IT 

 










Sommario :    VFR   VFR Marginale   IFR   IFR Intensivo   IFR Molto Intensivo
Visibilità : 
Base nubi : 
>= 8 km
>= 3000ft
5 / 8 km
1000 / 3000 ft
1500m / 5 km
500 / 1000 ft
800 / 1500m
200 / 500 ft
< 800m
< 200 ft
Simboli :   Temporali  Nebbia  Neve Forte  Precipitazioni Forti  Vento > 20 kt
SIGMETs :   Varie  Temporali  Ghiacco  Turbolenza  Onda orograficha  Ceneri Vulcaniche






- Altitudine del aeroporto : 267 ft


EGDR - Culdrose Navy

ULTIMO METAR :
  • 150950Z 24011KT 9999 FEW010 SCT022 21/17 Q1003 TEMPO 3000 +TSRA FEW015 BKN025CB RMK WHT TEMPO YLO1

METARs OBSOLETI :
  • 150920Z 22007KT 9999 SCT008 FEW018TCU BKN022 22/18 Q1003 TEMPO 3000 +TSRA FEW015 BKN025CB RMK GRN TEMPO YLO1
  • 150850Z 25007KT 9999 FEW014 BKN100 21/18 Q1003 PROB30 TEMPO 3000 +TSRA FEW015 BKN025CB RMK BLU PROB30 YLO1
  • 150820Z AUTO 25006KT 9999 FEW006/// 20/18 Q1003
  • 150750Z AUTO 24004KT 9999 BR BKN002/// SCT160/// 20/19 Q1003
  • 150720Z AUTO 25005KT 5000 BR BKN001/// 19/18 Q1003

TAF TAF EGDR
Valido dal 15 a 09 ore il 15 a 18 ore UTC


150731Z 1509/1518 25005KT 8000 HZ SCT010 BKN080
BECMG 1509/1511 9999 NSW FEW018 SCT1000
PROB30
TEMPO 1511/1518 VRB15G25KT 3000 +TSGR +TSRA FEW015 BKN025CB



MetMap, La meteo Aeronautica in un colpo d'occhio ! - Copyright ORBIFLY Dicembre 2007 - Disclaimer

ORBIFLY MET'MAP TEAM :

Programmazione e sviluppo : Alexandra Zaïnal
Concezione : Baudouin d'Aumeries
Supporto tecnico e logistico : Manuel Goepfert
Aiuto : Marc-Olivier Méhu
Aiuto per la traduzione : Arnaldo La Scala




FONTI E CREDITI :

   NOAA